sensor_id;sensor_type;location;lat;lon;timestamp;P1;durP1;ratioP1;P2;durP2;ratioP2
5058;SDS011;2548;52.050;11.036;2022-10-26T00:01:06;7.22;;;6.45;;
5058;SDS011;2548;52.050;11.036;2022-10-26T00:03:37;11.25;;;7.60;;
5058;SDS011;2548;52.050;11.036;2022-10-26T00:06:06;7.38;;;6.35;;
5058;SDS011;2548;52.050;11.036;2022-10-26T00:08:35;9.13;;;6.72;;
5058;SDS011;2548;52.050;11.036;2022-10-26T00:11:03;7.75;;;6.93;;
5058;SDS011;2548;52.050;11.036;2022-10-26T00:13:32;13.88;;;6.13;;
5058;SDS011;2548;52.050;11.036;2022-10-26T00:16:00;7.57;;;5.95;;
5058;SDS011;2548;52.050;11.036;2022-10-26T00:18:33;6.63;;;6.03;;
5058;SDS011;2548;52.050;11.036;2022-10-26T00:21:02;6.60;;;6.00;;
5058;SDS011;2548;52.050;11.036;2022-10-26T00:23:30;7.45;;;5.32;;
5058;SDS011;2548;52.050;11.036;2022-10-26T00:25:58;4.00;;;3.70;;
5058;SDS011;2548;52.050;11.036;2022-10-26T00:28:25;7.35;;;5.07;;
5058;SDS011;2548;52.050;11.036;2022-10-26T00:30:53;4.38;;;3.97;;
5058;SDS011;2548;52.050;11.036;2022-10-26T00:33:23;8.10;;;3.67;;
5058;SDS011;2548;52.050;11.036;2022-10-26T00:38:20;4.60;;;4.25;;
5058;SDS011;2548;52.050;11.036;2022-10-26T00:40:48;4.65;;;4.25;;
5058;SDS011;2548;52.050;11.036;2022-10-26T00:46:03;3.38;;;3.17;;
5058;SDS011;2548;52.050;11.036;2022-10-26T00:48:35;5.10;;;4.70;;
5058;SDS011;2548;52.050;11.036;2022-10-26T00:51:07;5.93;;;4.32;;
5058;SDS011;2548;52.050;11.036;2022-10-26T00:53:40;5.10;;;4.70;;
5058;SDS011;2548;52.050;11.036;2022-10-26T00:56:08;5.93;;;5.53;;
5058;SDS011;2548;52.050;11.036;2022-10-26T00:58:35;9.90;;;4.75;;
5058;SDS011;2548;52.050;11.036;2022-10-26T01:01:04;4.57;;;4.28;;
5058;SDS011;2548;52.050;11.036;2022-10-26T01:03:32;9.88;;;4.65;;
5058;SDS011;2548;52.050;11.036;2022-10-26T01:06:01;6.45;;;5.50;;
5058;SDS011;2548;52.050;11.036;2022-10-26T01:08:30;5.03;;;4.28;;
5058;SDS011;2548;52.050;11.036;2022-10-26T01:11:00;4.47;;;4.13;;
5058;SDS011;2548;52.050;11.036;2022-10-26T01:13:29;6.88;;;4.97;;
5058;SDS011;2548;52.050;11.036;2022-10-26T01:16:02;4.63;;;4.25;;
5058;SDS011;2548;52.050;11.036;2022-10-26T01:18:44;7.97;;;4.80;;
5058;SDS011;2548;52.050;11.036;2022-10-26T01:21:40;4.50;;;3.75;;
5058;SDS011;2548;52.050;11.036;2022-10-26T01:24:21;4.18;;;3.45;;
5058;SDS011;2548;52.050;11.036;2022-10-26T01:27:05;6.03;;;4.20;;
5058;SDS011;2548;52.050;11.036;2022-10-26T01:29:53;5.40;;;4.32;;
5058;SDS011;2548;52.050;11.036;2022-10-26T01:32:54;3.50;;;3.20;;
5058;SDS011;2548;52.050;11.036;2022-10-26T01:35:51;4.88;;;3.75;;
5058;SDS011;2548;52.050;11.036;2022-10-26T01:38:28;4.70;;;3.25;;
5058;SDS011;2548;52.050;11.036;2022-10-26T01:40:59;4.65;;;3.97;;
5058;SDS011;2548;52.050;11.036;2022-10-26T01:43:32;6.95;;;5.15;;
5058;SDS011;2548;52.050;11.036;2022-10-26T01:46:03;17.73;;;6.20;;
5058;SDS011;2548;52.050;11.036;2022-10-26T01:48:33;7.72;;;4.93;;
5058;SDS011;2548;52.050;11.036;2022-10-26T01:51:02;7.75;;;4.95;;
5058;SDS011;2548;52.050;11.036;2022-10-26T01:53:32;8.18;;;5.28;;
5058;SDS011;2548;52.050;11.036;2022-10-26T01:55:59;7.80;;;4.88;;
5058;SDS011;2548;52.050;11.036;2022-10-26T01:58:36;4.68;;;4.38;;
5058;SDS011;2548;52.050;11.036;2022-10-26T02:01:25;5.50;;;5.10;;
5058;SDS011;2548;52.050;11.036;2022-10-26T02:04:17;5.10;;;4.68;;
5058;SDS011;2548;52.050;11.036;2022-10-26T02:06:53;5.70;;;4.40;;
5058;SDS011;2548;52.050;11.036;2022-10-26T02:09:29;4.85;;;4.45;;
5058;SDS011;2548;52.050;11.036;2022-10-26T02:12:04;5.47;;;4.97;;
5058;SDS011;2548;52.050;11.036;2022-10-26T02:14:39;6.18;;;4.88;;
5058;SDS011;2548;52.050;11.036;2022-10-26T02:17:13;5.53;;;5.03;;
5058;SDS011;2548;52.050;11.036;2022-10-26T02:19:49;4.30;;;4.00;;
5058;SDS011;2548;52.050;11.036;2022-10-26T02:22:21;6.70;;;4.10;;
5058;SDS011;2548;52.050;11.036;2022-10-26T02:24:53;5.32;;;4.90;;
5058;SDS011;2548;52.050;11.036;2022-10-26T02:27:23;6.40;;;4.80;;
5058;SDS011;2548;52.050;11.036;2022-10-26T02:29:53;5.35;;;4.85;;
5058;SDS011;2548;52.050;11.036;2022-10-26T02:32:22;6.82;;;4.30;;
5058;SDS011;2548;52.050;11.036;2022-10-26T02:34:54;7.22;;;5.25;;
5058;SDS011;2548;52.050;11.036;2022-10-26T02:37:25;6.88;;;4.75;;
5058;SDS011;2548;52.050;11.036;2022-10-26T02:39:54;8.57;;;5.30;;
5058;SDS011;2548;52.050;11.036;2022-10-26T02:42:25;6.15;;;5.40;;
5058;SDS011;2548;52.050;11.036;2022-10-26T02:44:53;7.75;;;4.82;;
5058;SDS011;2548;52.050;11.036;2022-10-26T02:47:25;9.43;;;4.55;;
5058;SDS011;2548;52.050;11.036;2022-10-26T02:49:54;7.20;;;6.00;;
5058;SDS011;2548;52.050;11.036;2022-10-26T02:52:22;8.43;;;6.65;;
5058;SDS011;2548;52.050;11.036;2022-10-26T02:54:55;8.98;;;6.22;;
5058;SDS011;2548;52.050;11.036;2022-10-26T02:57:29;9.57;;;6.28;;
5058;SDS011;2548;52.050;11.036;2022-10-26T03:00:00;11.90;;;6.80;;
5058;SDS011;2548;52.050;11.036;2022-10-26T03:02:28;12.40;;;5.35;;
5058;SDS011;2548;52.050;11.036;2022-10-26T03:04:59;6.07;;;5.53;;
5058;SDS011;2548;52.050;11.036;2022-10-26T03:07:34;6.93;;;6.28;;
5058;SDS011;2548;52.050;11.036;2022-10-26T03:10:02;7.30;;;5.93;;
5058;SDS011;2548;52.050;11.036;2022-10-26T03:12:29;8.73;;;5.45;;
5058;SDS011;2548;52.050;11.036;2022-10-26T03:14:56;9.38;;;5.15;;
5058;SDS011;2548;52.050;11.036;2022-10-26T03:17:24;8.23;;;6.35;;
5058;SDS011;2548;52.050;11.036;2022-10-26T03:19:51;12.20;;;6.80;;
5058;SDS011;2548;52.050;11.036;2022-10-26T03:22:20;6.47;;;5.97;;
5058;SDS011;2548;52.050;11.036;2022-10-26T03:24:48;6.90;;;6.22;;
5058;SDS011;2548;52.050;11.036;2022-10-26T03:27:15;6.65;;;5.95;;
5058;SDS011;2548;52.050;11.036;2022-10-26T03:29:42;11.75;;;5.40;;
5058;SDS011;2548;52.050;11.036;2022-10-26T03:32:10;8.23;;;6.43;;
5058;SDS011;2548;52.050;11.036;2022-10-26T03:34:37;7.40;;;6.80;;
5058;SDS011;2548;52.050;11.036;2022-10-26T03:37:04;9.30;;;6.47;;
5058;SDS011;2548;52.050;11.036;2022-10-26T03:39:33;8.00;;;6.35;;
5058;SDS011;2548;52.050;11.036;2022-10-26T03:42:00;6.55;;;5.93;;
5058;SDS011;2548;52.050;11.036;2022-10-26T03:44:28;7.53;;;6.22;;
5058;SDS011;2548;52.050;11.036;2022-10-26T03:46:55;9.10;;;5.50;;
5058;SDS011;2548;52.050;11.036;2022-10-26T03:49:23;6.53;;;5.60;;
5058;SDS011;2548;52.050;11.036;2022-10-26T03:51:50;8.38;;;5.05;;
5058;SDS011;2548;52.050;11.036;2022-10-26T03:54:17;11.80;;;6.53;;
5058;SDS011;2548;52.050;11.036;2022-10-26T03:56:46;11.15;;;6.03;;
5058;SDS011;2548;52.050;11.036;2022-10-26T03:59:13;5.80;;;5.20;;
5058;SDS011;2548;52.050;11.036;2022-10-26T04:01:40;6.32;;;5.68;;
5058;SDS011;2548;52.050;11.036;2022-10-26T04:04:08;9.75;;;5.43;;
5058;SDS011;2548;52.050;11.036;2022-10-26T04:06:35;9.55;;;5.35;;
5058;SDS011;2548;52.050;11.036;2022-10-26T04:09:02;5.70;;;4.65;;
5058;SDS011;2548;52.050;11.036;2022-10-26T04:11:32;10.05;;;5.72;;
5058;SDS011;2548;52.050;11.036;2022-10-26T04:14:01;5.20;;;4.70;;
5058;SDS011;2548;52.050;11.036;2022-10-26T04:16:28;10.15;;;5.65;;
5058;SDS011;2548;52.050;11.036;2022-10-26T04:18:56;6.93;;;5.03;;
5058;SDS011;2548;52.050;11.036;2022-10-26T04:21:23;5.75;;;5.13;;
5058;SDS011;2548;52.050;11.036;2022-10-26T04:23:50;13.25;;;5.50;;
5058;SDS011;2548;52.050;11.036;2022-10-26T04:26:17;10.02;;;5.53;;
5058;SDS011;2548;52.050;11.036;2022-10-26T04:28:45;5.05;;;4.63;;
5058;SDS011;2548;52.050;11.036;2022-10-26T04:31:13;9.77;;;5.53;;
5058;SDS011;2548;52.050;11.036;2022-10-26T04:33:41;9.35;;;5.38;;
5058;SDS011;2548;52.050;11.036;2022-10-26T04:36:08;6.63;;;5.30;;
5058;SDS011;2548;52.050;11.036;2022-10-26T04:38:35;4.40;;;4.00;;
5058;SDS011;2548;52.050;11.036;2022-10-26T04:41:03;8.68;;;5.43;;
5058;SDS011;2548;52.050;11.036;2022-10-26T04:43:30;8.07;;;5.72;;
5058;SDS011;2548;52.050;11.036;2022-10-26T04:45:58;6.47;;;5.38;;
5058;SDS011;2548;52.050;11.036;2022-10-26T04:48:26;10.18;;;5.10;;
5058;SDS011;2548;52.050;11.036;2022-10-26T04:50:57;5.55;;;5.05;;
5058;SDS011;2548;52.050;11.036;2022-10-26T04:53:24;5.93;;;4.85;;
5058;SDS011;2548;52.050;11.036;2022-10-26T04:55:54;17.45;;;5.72;;
5058;SDS011;2548;52.050;11.036;2022-10-26T04:58:22;7.55;;;5.45;;
5058;SDS011;2548;52.050;11.036;2022-10-26T05:00:50;9.73;;;7.68;;
5058;SDS011;2548;52.050;11.036;2022-10-26T05:03:17;10.35;;;6.85;;
5058;SDS011;2548;52.050;11.036;2022-10-26T05:05:46;9.02;;;6.20;;
5058;SDS011;2548;52.050;11.036;2022-10-26T05:08:13;6.05;;;4.70;;
5058;SDS011;2548;52.050;11.036;2022-10-26T05:10:41;7.38;;;5.75;;
5058;SDS011;2548;52.050;11.036;2022-10-26T05:13:09;9.73;;;6.43;;
5058;SDS011;2548;52.050;11.036;2022-10-26T05:15:36;8.07;;;6.10;;
5058;SDS011;2548;52.050;11.036;2022-10-26T05:18:04;6.78;;;6.07;;
5058;SDS011;2548;52.050;11.036;2022-10-26T05:20:34;6.93;;;6.25;;
5058;SDS011;2548;52.050;11.036;2022-10-26T05:23:04;7.13;;;5.45;;
5058;SDS011;2548;52.050;11.036;2022-10-26T05:25:33;5.70;;;5.28;;
5058;SDS011;2548;52.050;11.036;2022-10-26T05:28:02;8.23;;;5.70;;
5058;SDS011;2548;52.050;11.036;2022-10-26T05:30:32;6.95;;;6.38;;
5058;SDS011;2548;52.050;11.036;2022-10-26T05:33:00;12.68;;;6.00;;
5058;SDS011;2548;52.050;11.036;2022-10-26T05:35:29;10.30;;;6.35;;
5058;SDS011;2548;52.050;11.036;2022-10-26T05:37:57;6.30;;;5.68;;
5058;SDS011;2548;52.050;11.036;2022-10-26T05:40:26;10.32;;;5.88;;
5058;SDS011;2548;52.050;11.036;2022-10-26T05:42:58;7.68;;;5.60;;
5058;SDS011;2548;52.050;11.036;2022-10-26T05:45:25;14.38;;;6.28;;
5058;SDS011;2548;52.050;11.036;2022-10-26T05:47:52;7.00;;;5.30;;
5058;SDS011;2548;52.050;11.036;2022-10-26T05:50:20;16.98;;;5.88;;
5058;SDS011;2548;52.050;11.036;2022-10-26T05:52:47;9.98;;;6.60;;
5058;SDS011;2548;52.050;11.036;2022-10-26T05:55:16;10.25;;;5.78;;
5058;SDS011;2548;52.050;11.036;2022-10-26T05:57:46;8.63;;;7.72;;
5058;SDS011;2548;52.050;11.036;2022-10-26T06:00:14;8.45;;;7.57;;
5058;SDS011;2548;52.050;11.036;2022-10-26T06:02:46;13.88;;;8.18;;
5058;SDS011;2548;52.050;11.036;2022-10-26T06:05:25;15.45;;;8.57;;
5058;SDS011;2548;52.050;11.036;2022-10-26T06:07:57;7.60;;;6.72;;
5058;SDS011;2548;52.050;11.036;2022-10-26T06:10:25;9.43;;;7.53;;
5058;SDS011;2548;52.050;11.036;2022-10-26T06:12:54;8.75;;;7.07;;
5058;SDS011;2548;52.050;11.036;2022-10-26T06:15:22;19.48;;;8.88;;
5058;SDS011;2548;52.050;11.036;2022-10-26T06:17:53;16.48;;;8.10;;
5058;SDS011;2548;52.050;11.036;2022-10-26T06:20:35;15.88;;;8.32;;
5058;SDS011;2548;52.050;11.036;2022-10-26T06:23:16;8.02;;;7.28;;
5058;SDS011;2548;52.050;11.036;2022-10-26T06:25:59;10.95;;;7.68;;
5058;SDS011;2548;52.050;11.036;2022-10-26T06:28:33;8.77;;;7.95;;
5058;SDS011;2548;52.050;11.036;2022-10-26T06:31:06;7.53;;;6.50;;
5058;SDS011;2548;52.050;11.036;2022-10-26T06:33:33;11.52;;;7.82;;
5058;SDS011;2548;52.050;11.036;2022-10-26T06:36:04;13.23;;;7.57;;
5058;SDS011;2548;52.050;11.036;2022-10-26T06:38:39;12.65;;;8.68;;
5058;SDS011;2548;52.050;11.036;2022-10-26T06:41:10;9.05;;;7.93;;
5058;SDS011;2548;52.050;11.036;2022-10-26T06:43:41;9.52;;;7.00;;
5058;SDS011;2548;52.050;11.036;2022-10-26T06:46:13;13.88;;;6.57;;
5058;SDS011;2548;52.050;11.036;2022-10-26T06:48:50;9.57;;;8.15;;
5058;SDS011;2548;52.050;11.036;2022-10-26T06:51:24;7.82;;;6.97;;
5058;SDS011;2548;52.050;11.036;2022-10-26T06:53:54;10.57;;;7.88;;
5058;SDS011;2548;52.050;11.036;2022-10-26T06:56:26;8.48;;;7.30;;
5058;SDS011;2548;52.050;11.036;2022-10-26T06:58:55;19.80;;;7.00;;
5058;SDS011;2548;52.050;11.036;2022-10-26T07:01:30;12.32;;;6.30;;
5058;SDS011;2548;52.050;11.036;2022-10-26T07:03:57;16.65;;;7.00;;
5058;SDS011;2548;52.050;11.036;2022-10-26T07:06:24;11.75;;;6.88;;
5058;SDS011;2548;52.050;11.036;2022-10-26T07:08:52;9.05;;;6.65;;
5058;SDS011;2548;52.050;11.036;2022-10-26T07:11:19;9.70;;;7.28;;
5058;SDS011;2548;52.050;11.036;2022-10-26T07:13:46;8.55;;;6.93;;
5058;SDS011;2548;52.050;11.036;2022-10-26T07:16:16;8.80;;;6.22;;
5058;SDS011;2548;52.050;11.036;2022-10-26T07:18:43;9.60;;;6.45;;
5058;SDS011;2548;52.050;11.036;2022-10-26T07:21:10;8.05;;;6.25;;
5058;SDS011;2548;52.050;11.036;2022-10-26T07:23:38;10.27;;;7.57;;
5058;SDS011;2548;52.050;11.036;2022-10-26T07:26:05;8.85;;;6.50;;
5058;SDS011;2548;52.050;11.036;2022-10-26T07:28:32;7.40;;;6.70;;
5058;SDS011;2548;52.050;11.036;2022-10-26T07:31:01;8.88;;;6.75;;
5058;SDS011;2548;52.050;11.036;2022-10-26T07:33:31;9.00;;;6.55;;
5058;SDS011;2548;52.050;11.036;2022-10-26T07:35:58;9.27;;;7.05;;
5058;SDS011;2548;52.050;11.036;2022-10-26T07:38:26;12.15;;;7.57;;
5058;SDS011;2548;52.050;11.036;2022-10-26T07:40:53;8.73;;;7.93;;
5058;SDS011;2548;52.050;11.036;2022-10-26T07:43:20;9.82;;;6.68;;
5058;SDS011;2548;52.050;11.036;2022-10-26T07:45:48;13.05;;;8.30;;
5058;SDS011;2548;52.050;11.036;2022-10-26T07:48:16;8.15;;;7.35;;
5058;SDS011;2548;52.050;11.036;2022-10-26T07:50:44;8.63;;;6.68;;
5058;SDS011;2548;52.050;11.036;2022-10-26T07:53:12;10.40;;;6.70;;
5058;SDS011;2548;52.050;11.036;2022-10-26T07:55:39;14.82;;;7.63;;
5058;SDS011;2548;52.050;11.036;2022-10-26T07:58:06;10.70;;;7.60;;
5058;SDS011;2548;52.050;11.036;2022-10-26T08:00:34;13.30;;;7.65;;
5058;SDS011;2548;52.050;11.036;2022-10-26T08:03:01;7.63;;;7.00;;
5058;SDS011;2548;52.050;11.036;2022-10-26T08:05:29;7.13;;;6.40;;
5058;SDS011;2548;52.050;11.036;2022-10-26T08:07:57;7.10;;;6.43;;
5058;SDS011;2548;52.050;11.036;2022-10-26T08:10:25;7.70;;;6.80;;
5058;SDS011;2548;52.050;11.036;2022-10-26T08:12:52;8.52;;;6.40;;
5058;SDS011;2548;52.050;11.036;2022-10-26T08:15:19;16.85;;;7.38;;
5058;SDS011;2548;52.050;11.036;2022-10-26T08:17:47;6.75;;;5.85;;
5058;SDS011;2548;52.050;11.036;2022-10-26T08:20:14;7.47;;;6.47;;
5058;SDS011;2548;52.050;11.036;2022-10-26T08:22:42;8.10;;;6.72;;
5058;SDS011;2548;52.050;11.036;2022-10-26T08:25:10;8.48;;;6.97;;
5058;SDS011;2548;52.050;11.036;2022-10-26T08:27:38;9.75;;;6.00;;
5058;SDS011;2548;52.050;11.036;2022-10-26T08:30:05;7.30;;;5.70;;
5058;SDS011;2548;52.050;11.036;2022-10-26T08:32:33;16.60;;;7.38;;
5058;SDS011;2548;52.050;11.036;2022-10-26T08:35:00;17.92;;;6.95;;
5058;SDS011;2548;52.050;11.036;2022-10-26T08:37:28;7.13;;;6.13;;
5058;SDS011;2548;52.050;11.036;2022-10-26T08:39:55;14.90;;;7.10;;
5058;SDS011;2548;52.050;11.036;2022-10-26T08:42:26;11.43;;;6.70;;
5058;SDS011;2548;52.050;11.036;2022-10-26T08:45:00;6.65;;;6.10;;
5058;SDS011;2548;52.050;11.036;2022-10-26T08:47:31;7.88;;;6.15;;
5058;SDS011;2548;52.050;11.036;2022-10-26T08:50:09;10.60;;;6.90;;
5058;SDS011;2548;52.050;11.036;2022-10-26T08:52:40;9.50;;;6.82;;
5058;SDS011;2548;52.050;11.036;2022-10-26T08:55:13;9.38;;;6.20;;
5058;SDS011;2548;52.050;11.036;2022-10-26T08:57:43;16.27;;;7.43;;
5058;SDS011;2548;52.050;11.036;2022-10-26T09:00:14;6.93;;;6.22;;
5058;SDS011;2548;52.050;11.036;2022-10-26T09:02:47;17.83;;;6.97;;
5058;SDS011;2548;52.050;11.036;2022-10-26T09:05:16;9.82;;;7.03;;
5058;SDS011;2548;52.050;11.036;2022-10-26T09:07:49;8.20;;;6.80;;
5058;SDS011;2548;52.050;11.036;2022-10-26T09:10:33;19.00;;;7.15;;
5058;SDS011;2548;52.050;11.036;2022-10-26T09:13:09;8.55;;;5.93;;
5058;SDS011;2548;52.050;11.036;2022-10-26T09:15:48;9.35;;;6.28;;
5058;SDS011;2548;52.050;11.036;2022-10-26T09:18:26;9.18;;;6.25;;
5058;SDS011;2548;52.050;11.036;2022-10-26T09:21:03;8.63;;;6.82;;
5058;SDS011;2548;52.050;11.036;2022-10-26T09:23:42;9.27;;;6.85;;
5058;SDS011;2548;52.050;11.036;2022-10-26T09:26:28;8.85;;;5.80;;
5058;SDS011;2548;52.050;11.036;2022-10-26T09:29:01;8.13;;;6.82;;
5058;SDS011;2548;52.050;11.036;2022-10-26T09:31:31;9.90;;;7.28;;
5058;SDS011;2548;52.050;11.036;2022-10-26T09:34:06;12.02;;;6.88;;
5058;SDS011;2548;52.050;11.036;2022-10-26T09:36:38;8.88;;;6.35;;
5058;SDS011;2548;52.050;11.036;2022-10-26T09:39:09;7.78;;;5.63;;
5058;SDS011;2548;52.050;11.036;2022-10-26T09:41:41;7.10;;;6.05;;
5058;SDS011;2548;52.050;11.036;2022-10-26T09:44:17;13.57;;;7.53;;
5058;SDS011;2548;52.050;11.036;2022-10-26T09:46:52;7.28;;;6.65;;
5058;SDS011;2548;52.050;11.036;2022-10-26T09:49:25;13.23;;;7.07;;
5058;SDS011;2548;52.050;11.036;2022-10-26T09:51:59;8.45;;;6.45;;
5058;SDS011;2548;52.050;11.036;2022-10-26T09:54:26;9.23;;;7.38;;
5058;SDS011;2548;52.050;11.036;2022-10-26T09:56:54;11.30;;;6.72;;
5058;SDS011;2548;52.050;11.036;2022-10-26T09:59:25;9.15;;;7.20;;
5058;SDS011;2548;52.050;11.036;2022-10-26T10:01:55;12.27;;;6.90;;
5058;SDS011;2548;52.050;11.036;2022-10-26T10:04:22;9.02;;;7.03;;
5058;SDS011;2548;52.050;11.036;2022-10-26T10:06:51;8.13;;;7.38;;
5058;SDS011;2548;52.050;11.036;2022-10-26T10:09:19;11.88;;;7.70;;
5058;SDS011;2548;52.050;11.036;2022-10-26T10:11:48;11.40;;;7.25;;
5058;SDS011;2548;52.050;11.036;2022-10-26T10:14:21;11.57;;;7.40;;
5058;SDS011;2548;52.050;11.036;2022-10-26T10:16:52;10.35;;;6.22;;
5058;SDS011;2548;52.050;11.036;2022-10-26T10:19:21;11.00;;;6.97;;
5058;SDS011;2548;52.050;11.036;2022-10-26T10:21:51;7.50;;;6.07;;
5058;SDS011;2548;52.050;11.036;2022-10-26T10:24:22;10.13;;;6.78;;
5058;SDS011;2548;52.050;11.036;2022-10-26T10:26:55;15.65;;;7.72;;
5058;SDS011;2548;52.050;11.036;2022-10-26T10:29:27;8.55;;;6.75;;
5058;SDS011;2548;52.050;11.036;2022-10-26T10:31:58;8.50;;;6.20;;
5058;SDS011;2548;52.050;11.036;2022-10-26T10:34:26;13.35;;;7.70;;
5058;SDS011;2548;52.050;11.036;2022-10-26T10:36:56;8.45;;;6.45;;
5058;SDS011;2548;52.050;11.036;2022-10-26T10:39:34;8.25;;;6.68;;
5058;SDS011;2548;52.050;11.036;2022-10-26T10:42:05;12.55;;;6.40;;
5058;SDS011;2548;52.050;11.036;2022-10-26T10:44:42;7.43;;;6.28;;
5058;SDS011;2548;52.050;11.036;2022-10-26T10:47:17;8.20;;;6.07;;
5058;SDS011;2548;52.050;11.036;2022-10-26T10:49:55;8.02;;;6.20;;
5058;SDS011;2548;52.050;11.036;2022-10-26T10:52:25;10.98;;;5.95;;
5058;SDS011;2548;52.050;11.036;2022-10-26T10:55:00;6.40;;;5.50;;
5058;SDS011;2548;52.050;11.036;2022-10-26T10:57:44;9.98;;;6.38;;
5058;SDS011;2548;52.050;11.036;2022-10-26T11:00:24;6.30;;;5.70;;
5058;SDS011;2548;52.050;11.036;2022-10-26T11:02:56;9.70;;;5.95;;
5058;SDS011;2548;52.050;11.036;2022-10-26T11:06:06;9.45;;;6.40;;
5058;SDS011;2548;52.050;11.036;2022-10-26T11:08:40;11.50;;;5.00;;
5058;SDS011;2548;52.050;11.036;2022-10-26T11:11:11;13.80;;;6.00;;
5058;SDS011;2548;52.050;11.036;2022-10-26T11:13:44;11.68;;;5.32;;
5058;SDS011;2548;52.050;11.036;2022-10-26T11:16:18;7.03;;;5.90;;
5058;SDS011;2548;52.050;11.036;2022-10-26T11:18:50;13.45;;;4.78;;
5058;SDS011;2548;52.050;11.036;2022-10-26T11:21:22;5.18;;;4.45;;
5058;SDS011;2548;52.050;11.036;2022-10-26T11:23:56;6.80;;;4.47;;
5058;SDS011;2548;52.050;11.036;2022-10-26T11:26:39;8.48;;;5.18;;
5058;SDS011;2548;52.050;11.036;2022-10-26T11:29:12;5.00;;;4.00;;
5058;SDS011;2548;52.050;11.036;2022-10-26T11:31:50;6.72;;;4.38;;
5058;SDS011;2548;52.050;11.036;2022-10-26T11:34:23;6.75;;;4.22;;
5058;SDS011;2548;52.050;11.036;2022-10-26T11:36:56;13.23;;;4.50;;
5058;SDS011;2548;52.050;11.036;2022-10-26T11:39:30;4.43;;;3.75;;
5058;SDS011;2548;52.050;11.036;2022-10-26T11:42:05;11.73;;;4.20;;
5058;SDS011;2548;52.050;11.036;2022-10-26T11:44:40;4.28;;;3.97;;
5058;SDS011;2548;52.050;11.036;2022-10-26T11:47:13;6.45;;;4.30;;
5058;SDS011;2548;52.050;11.036;2022-10-26T11:49:46;4.10;;;3.80;;
5058;SDS011;2548;52.050;11.036;2022-10-26T11:52:18;5.30;;;3.60;;
5058;SDS011;2548;52.050;11.036;2022-10-26T11:54:52;8.75;;;4.35;;
5058;SDS011;2548;52.050;11.036;2022-10-26T11:57:21;9.95;;;3.80;;
5058;SDS011;2548;52.050;11.036;2022-10-26T11:59:50;12.75;;;3.40;;
5058;SDS011;2548;52.050;11.036;2022-10-26T12:02:20;5.88;;;3.20;;
5058;SDS011;2548;52.050;11.036;2022-10-26T12:04:52;3.17;;;2.90;;
5058;SDS011;2548;52.050;11.036;2022-10-26T12:07:24;3.60;;;3.30;;
5058;SDS011;2548;52.050;11.036;2022-10-26T12:09:55;14.55;;;4.03;;
5058;SDS011;2548;52.050;11.036;2022-10-26T12:12:27;6.57;;;3.33;;
5058;SDS011;2548;52.050;11.036;2022-10-26T12:15:02;6.45;;;3.40;;
5058;SDS011;2548;52.050;11.036;2022-10-26T12:17:42;5.55;;;3.58;;
5058;SDS011;2548;52.050;11.036;2022-10-26T12:20:22;11.38;;;3.53;;
5058;SDS011;2548;52.050;11.036;2022-10-26T12:23:27;9.55;;;3.17;;
5058;SDS011;2548;52.050;11.036;2022-10-26T12:29:13;6.15;;;4.03;;
5058;SDS011;2548;52.050;11.036;2022-10-26T12:32:03;10.77;;;2.53;;
5058;SDS011;2548;52.050;11.036;2022-10-26T12:34:59;3.28;;;2.28;;
5058;SDS011;2548;52.050;11.036;2022-10-26T12:37:31;18.27;;;3.25;;
5058;SDS011;2548;52.050;11.036;2022-10-26T12:52:31;2.60;;;2.40;;
5058;SDS011;2548;52.050;11.036;2022-10-26T12:58:23;4.60;;;1.92;;
5058;SDS011;2548;52.050;11.036;2022-10-26T13:01:22;3.53;;;2.47;;
5058;SDS011;2548;52.050;11.036;2022-10-26T13:04:00;1.70;;;1.60;;
5058;SDS011;2548;52.050;11.036;2022-10-26T13:06:47;4.72;;;2.20;;
5058;SDS011;2548;52.050;11.036;2022-10-26T13:09:28;2.10;;;2.00;;
5058;SDS011;2548;52.050;11.036;2022-10-26T13:11:59;11.13;;;2.10;;
5058;SDS011;2548;52.050;11.036;2022-10-26T13:14:30;10.55;;;1.98;;
5058;SDS011;2548;52.050;11.036;2022-10-26T13:17:02;7.90;;;2.55;;
5058;SDS011;2548;52.050;11.036;2022-10-26T13:19:35;2.83;;;1.90;;
5058;SDS011;2548;52.050;11.036;2022-10-26T13:22:11;3.70;;;1.65;;
5058;SDS011;2548;52.050;11.036;2022-10-26T13:24:46;1.80;;;1.70;;
5058;SDS011;2548;52.050;11.036;2022-10-26T13:30:20;5.53;;;2.20;;
5058;SDS011;2548;52.050;11.036;2022-10-26T13:33:01;1.90;;;1.80;;
5058;SDS011;2548;52.050;11.036;2022-10-26T13:35:33;2.75;;;1.90;;
5058;SDS011;2548;52.050;11.036;2022-10-26T13:38:00;4.05;;;2.00;;
5058;SDS011;2548;52.050;11.036;2022-10-26T13:40:36;8.02;;;2.47;;
5058;SDS011;2548;52.050;11.036;2022-10-26T13:43:05;3.40;;;2.00;;
5058;SDS011;2548;52.050;11.036;2022-10-26T13:45:41;6.68;;;2.15;;
5058;SDS011;2548;52.050;11.036;2022-10-26T13:48:17;3.10;;;2.65;;
5058;SDS011;2548;52.050;11.036;2022-10-26T13:50:50;9.27;;;2.60;;
5058;SDS011;2548;52.050;11.036;2022-10-26T13:53:20;2.97;;;2.78;;
5058;SDS011;2548;52.050;11.036;2022-10-26T13:55:52;4.85;;;3.65;;
5058;SDS011;2548;52.050;11.036;2022-10-26T13:58:21;5.35;;;3.10;;
5058;SDS011;2548;52.050;11.036;2022-10-26T14:01:01;5.18;;;3.40;;
5058;SDS011;2548;52.050;11.036;2022-10-26T14:03:37;5.75;;;3.80;;
5058;SDS011;2548;52.050;11.036;2022-10-26T14:06:04;6.13;;;3.10;;
5058;SDS011;2548;52.050;11.036;2022-10-26T14:08:36;3.40;;;3.10;;
5058;SDS011;2548;52.050;11.036;2022-10-26T14:11:09;10.70;;;3.85;;
5058;SDS011;2548;52.050;11.036;2022-10-26T14:13:39;3.78;;;3.47;;
5058;SDS011;2548;52.050;11.036;2022-10-26T14:16:07;5.90;;;3.45;;
5058;SDS011;2548;52.050;11.036;2022-10-26T14:18:36;4.10;;;2.90;;
5058;SDS011;2548;52.050;11.036;2022-10-26T14:21:05;6.70;;;3.63;;
5058;SDS011;2548;52.050;11.036;2022-10-26T14:23:44;4.97;;;3.60;;
5058;SDS011;2548;52.050;11.036;2022-10-26T14:26:19;5.47;;;3.55;;
5058;SDS011;2548;52.050;11.036;2022-10-26T14:28:49;5.88;;;3.45;;
5058;SDS011;2548;52.050;11.036;2022-10-26T14:31:20;3.58;;;3.28;;
5058;SDS011;2548;52.050;11.036;2022-10-26T14:33:49;5.93;;;3.70;;
5058;SDS011;2548;52.050;11.036;2022-10-26T14:36:18;4.25;;;3.38;;
5058;SDS011;2548;52.050;11.036;2022-10-26T14:38:48;5.32;;;4.22;;
5058;SDS011;2548;52.050;11.036;2022-10-26T14:41:20;8.32;;;4.53;;
5058;SDS011;2548;52.050;11.036;2022-10-26T14:43:49;4.05;;;3.67;;
5058;SDS011;2548;52.050;11.036;2022-10-26T14:46:16;4.13;;;3.30;;
5058;SDS011;2548;52.050;11.036;2022-10-26T14:48:52;5.22;;;3.00;;
5058;SDS011;2548;52.050;11.036;2022-10-26T14:51:25;3.05;;;2.75;;
5058;SDS011;2548;52.050;11.036;2022-10-26T14:53:53;3.58;;;2.60;;
5058;SDS011;2548;52.050;11.036;2022-10-26T14:56:26;12.55;;;3.00;;
5058;SDS011;2548;52.050;11.036;2022-10-26T14:58:56;6.05;;;3.50;;
5058;SDS011;2548;52.050;11.036;2022-10-26T15:01:28;4.70;;;4.30;;
5058;SDS011;2548;52.050;11.036;2022-10-26T15:03:58;6.15;;;4.80;;
5058;SDS011;2548;52.050;11.036;2022-10-26T15:06:28;5.03;;;3.55;;
5058;SDS011;2548;52.050;11.036;2022-10-26T15:09:01;6.53;;;2.80;;
5058;SDS011;2548;52.050;11.036;2022-10-26T15:11:33;4.13;;;2.70;;
5058;SDS011;2548;52.050;11.036;2022-10-26T15:14:00;4.32;;;2.28;;
5058;SDS011;2548;52.050;11.036;2022-10-26T15:16:29;2.83;;;2.40;;
5058;SDS011;2548;52.050;11.036;2022-10-26T15:19:00;6.47;;;2.78;;
5058;SDS011;2548;52.050;11.036;2022-10-26T15:21:35;5.45;;;2.90;;
5058;SDS011;2548;52.050;11.036;2022-10-26T15:24:12;4.53;;;3.03;;
5058;SDS011;2548;52.050;11.036;2022-10-26T15:27:09;6.00;;;3.42;;
5058;SDS011;2548;52.050;11.036;2022-10-26T15:29:41;6.00;;;2.38;;
5058;SDS011;2548;52.050;11.036;2022-10-26T15:32:28;4.60;;;2.10;;
5058;SDS011;2548;52.050;11.036;2022-10-26T15:37:57;6.68;;;3.30;;
5058;SDS011;2548;52.050;11.036;2022-10-26T15:40:26;6.93;;;3.13;;
5058;SDS011;2548;52.050;11.036;2022-10-26T15:42:58;2.92;;;2.28;;
5058;SDS011;2548;52.050;11.036;2022-10-26T15:45:28;3.22;;;3.00;;
5058;SDS011;2548;52.050;11.036;2022-10-26T15:48:08;5.57;;;3.67;;
5058;SDS011;2548;52.050;11.036;2022-10-26T15:50:44;6.07;;;3.60;;
5058;SDS011;2548;52.050;11.036;2022-10-26T15:53:15;12.65;;;7.28;;
5058;SDS011;2548;52.050;11.036;2022-10-26T15:55:46;9.60;;;6.30;;